ADDS METAR Data INFO
IDs: Format: Raw Decoded Include TAF

Data at: 1918 UTC 23 Apr 2018

KOVL 231915Z AUTO 00000KT 10SM CLR 18/03 A3018 RMK AO2
KOVL 231855Z AUTO 21005KT 10SM CLR 18/02 A3018 RMK AO2
KOVL 231835Z AUTO 23003KT 10SM CLR 17/03 A3018 RMK AO2
KOVL 231815Z AUTO 24003KT 10SM CLR 17/03 A3019 RMK AO2
KOVL 231755Z AUTO 23003KT 10SM CLR 17/04 A3020 RMK AO2
KOVL 231735Z AUTO 24006KT 10SM CLR 17/04 A3021 RMK AO2
KOVL 231715Z AUTO 23006KT 10SM CLR 16/06 A3021 RMK AO2
KOVL 231655Z AUTO 24005KT 10SM CLR 16/06 A3022 RMK AO2
KOVL 231635Z AUTO 19006KT 10SM CLR 15/07 A3022 RMK AO2
KOVL 231615Z AUTO 21006KT 10SM CLR 14/06 A3022 RMK AO2
KOVL 231555Z AUTO 21005KT 10SM CLR 13/06 A3022 RMK AO2
KOVL 231535Z AUTO 22005KT 10SM CLR 13/06 A3022 RMK AO2
KOVL 231515Z AUTO 17005KT 10SM CLR 12/06 A3022 RMK AO2
KOVL 231455Z AUTO 17004KT 10SM CLR 12/07 A3023 RMK AO2
KOVL 231435Z AUTO 16005KT 10SM CLR 11/06 A3023 RMK AO2
KOVL 231415Z AUTO 17007KT 10SM CLR 10/06 A3023 RMK AO2
KOVL 231355Z AUTO 14005KT 10SM CLR 10/07 A3023 RMK AO2
KOVL 231335Z AUTO 13003KT 10SM CLR 08/06 A3023 RMK AO2
KOVL 231315Z AUTO 00000KT 7SM CLR 06/05 A3023 RMK AO2
KOVL 231255Z AUTO 00000KT 7SM CLR 05/03 A3023 RMK AO2
KOVL 231235Z AUTO 00000KT 5SM BR CLR 04/03 A3023 RMK AO2
KOVL 231215Z AUTO 00000KT 4SM BR CLR 03/02 A3023 RMK AO2
KOVL 231155Z AUTO 00000KT 4SM BR CLR 02/02 A3023 RMK AO2
KOVL 231135Z AUTO 00000KT 4SM BR CLR 02/02 A3023 RMK AO2
KOVL 231115Z AUTO 00000KT 5SM BR CLR 02/02 A3022 RMK AO2
KOVL 231055Z AUTO 07003KT 5SM BR CLR 02/02 A3023 RMK AO2
KOVL 231035Z AUTO 03003KT 4SM BR CLR 01/00 A3022 RMK AO2
KOVL 231015Z AUTO 00000KT 7SM CLR 03/02 A3022 RMK AO2
KOVL 230955Z AUTO 00000KT 7SM CLR 04/03 A3022 RMK AO2
KOVL 230935Z AUTO 13004KT 4SM BR CLR 03/02 A3022 RMK AO2
KOVL 230915Z AUTO 14005KT 5SM BR CLR 02/02 A3021 RMK AO2
KOVL 230855Z AUTO 00000KT 7SM CLR 02/02 A3021 RMK AO2
KOVL 230835Z AUTO 00000KT 7SM CLR 02/02 A3021 RMK AO2
KOVL 230815Z AUTO 00000KT 5SM BR CLR 03/02 A3021 RMK AO2
KOVL 230755Z AUTO 00000KT 5SM BR CLR 03/02 A3022 RMK AO2
KOVL 230735Z AUTO 00000KT 5SM BR CLR 03/02 A3022 RMK AO2
KOVL 230715Z AUTO 00000KT 5SM BR CLR 03/02 A3023 RMK AO2
KOVL 230655Z AUTO 00000KT 7SM CLR 04/02 A3023 RMK AO2
KOVL 230635Z AUTO 00000KT 7SM CLR 04/02 A3023 RMK AO2
KOVL 230615Z AUTO 00000KT 10SM CLR 05/03 A3023 RMK AO2
KOVL 230555Z AUTO 00000KT 7SM CLR 05/03 A3024 RMK AO2
KOVL 230535Z AUTO 00000KT 10SM CLR 05/03 A3024 RMK AO2
KOVL 230515Z AUTO 00000KT 10SM CLR 05/03 A3023 RMK AO2
KOVL 230455Z AUTO 00000KT 10SM CLR 05/03 A3023 RMK AO2
KOVL 230435Z AUTO 00000KT 10SM CLR 06/04 A3023 RMK AO2
KOVL 230416Z AUTO 00000KT 10SM CLR 05/03 A3024 RMK AO2
KOVL 230355Z AUTO 00000KT 10SM CLR 06/04 A3024 RMK AO2
KOVL 230335Z AUTO 00000KT 10SM CLR 06/04 A3024 RMK AO2
KOVL 230315Z AUTO 00000KT 10SM CLR 08/05 A3025 RMK AO2
KOVL 230255Z AUTO 00000KT 10SM CLR 08/06 A3025 RMK AO2
KOVL 230235Z AUTO 22003KT 10SM CLR 08/06 A3025 RMK AO2
KOVL 230215Z AUTO 22005KT 10SM CLR 08/06 A3025 RMK AO2
KOVL 230155Z AUTO 21004KT 10SM CLR 10/06 A3024 RMK AO2
KOVL 230135Z AUTO 20003KT 10SM CLR 11/06 A3024 RMK AO2
KOVL 230115Z AUTO 18003KT 10SM CLR 12/07 A3023 RMK AO2
KOVL 230055Z AUTO 17003KT 10SM CLR 12/06 A3023 RMK AO2
KOVL 230035Z AUTO 18004KT 10SM CLR 12/05 A3023 RMK AO2
KOVL 230015Z AUTO 16006KT 10SM CLR 13/05 A3023 RMK AO2
KOVL 222355Z AUTO 16005KT 10SM CLR 13/04 A3023 RMK AO2
KOVL 222336Z AUTO 16005KT 10SM CLR 13/04 A3023 RMK AO2
KOVL 222315Z AUTO 16007KT 10SM CLR 15/05 A3024 RMK AO2
KOVL 222255Z AUTO 17007KT 10SM CLR 14/05 A3024 RMK AO2
KOVL 222235Z AUTO 16009KT 10SM CLR 15/05 A3024 RMK AO2
KOVL 222215Z AUTO 14007KT 10SM CLR 15/05 A3024 RMK AO2
KOVL 222155Z AUTO 17007KT 10SM CLR 15/05 A3024 RMK AO2
KOVL 222136Z AUTO 17008KT 10SM CLR 15/05 A3024 RMK AO2
KOVL 222115Z AUTO 18007KT 10SM CLR 15/05 A3025 RMK AO2
KOVL 222055Z AUTO 18009KT 10SM CLR 15/05 A3026 RMK AO2
KOVL 222036Z AUTO 15009KT 10SM CLR 15/05 A3027 RMK AO2
KOVL 222015Z AUTO 14008KT 10SM CLR 15/03 A3028 RMK AO2
KOVL 221955Z AUTO 14008KT 10SM CLR 15/05 A3028 RMK AO2
KOVL 221935Z AUTO 15006G09KT 10SM CLR 15/04 A3029 RMK AO2
KOVL 221915Z AUTO 15008KT 10SM CLR 15/04 A3029 RMK AO2
KOVL 221855Z AUTO 16008KT 10SM CLR 15/05 A3029 RMK AO2
KOVL 221836Z AUTO 16010KT 10SM CLR 13/03 A3029 RMK AO2
KOVL 221815Z AUTO 14009G16KT 10SM CLR 13/04 A3030 RMK AO2
KOVL 221755Z AUTO 15010KT 10SM CLR 13/04 A3031 RMK AO2
KOVL 221735Z AUTO 14007KT 10SM CLR 13/05 A3032 RMK AO2
KOVL 221715Z AUTO 15006KT 10SM CLR 13/04 A3032 RMK AO2
KOVL 221655Z AUTO 14006KT 10SM CLR 13/04 A3033 RMK AO2
KOVL 221635Z AUTO 15009KT 10SM CLR 12/04 A3033 RMK AO2
KOVL 221615Z AUTO 15009KT 10SM CLR 12/03 A3034 RMK AO2
KOVL 221555Z AUTO 15005KT 10SM CLR 12/05 A3034 RMK AO2
KOVL 221535Z AUTO 14006KT 10SM CLR 11/05 A3034 RMK AO2
KOVL 221515Z AUTO 13005KT 10SM CLR 10/04 A3034 RMK AO2
KOVL 221455Z AUTO 13006KT 10SM CLR 10/05 A3034 RMK AO2
KOVL 221435Z AUTO 13005KT 10SM CLR 08/03 A3034 RMK AO2
KOVL 221415Z AUTO 11004KT 10SM CLR 08/03 A3033 RMK AO2
KOVL 221355Z AUTO 11004KT 10SM CLR 07/02 A3033 RMK AO2
KOVL 221335Z AUTO 00000KT 10SM CLR 05/02 A3034 RMK AO2
KOVL 221315Z AUTO 08003KT 10SM CLR 04/01 A3034 RMK AO2
KOVL 221255Z AUTO 00000KT 10SM CLR 04/02 A3034 RMK AO2
KOVL 221235Z AUTO 12003KT 10SM CLR 02/01 A3034 RMK AO2
KOVL 221215Z AUTO 00000KT 10SM CLR 02/01 A3033 RMK AO2
KOVL 221155Z AUTO 00000KT 7SM CLR 01/00 A3033 RMK AO2
KOVL 221135Z AUTO 00000KT 7SM CLR 01/00 A3033 RMK AO2
KOVL 221115Z AUTO 00000KT 10SM CLR 01/00 A3032 RMK AO2
KOVL 221055Z AUTO 00000KT 10SM CLR 01/00 A3031 RMK AO2
KOVL 221035Z AUTO 00000KT 10SM CLR 01/00 A3031 RMK AO2
KOVL 221015Z AUTO 00000KT 10SM CLR 01/00 A3031 RMK AO2
KOVL 220955Z AUTO 00000KT 10SM CLR 01/00 A3031 RMK AO2
KOVL 220935Z AUTO 00000KT 10SM CLR 02/00 A3030 RMK AO2
KOVL 220915Z AUTO 12003KT 10SM CLR 01/00 A3030 RMK AO2
KOVL 220855Z AUTO 12003KT 10SM CLR 01/00 A3029 RMK AO2
KOVL 220835Z AUTO 00000KT 10SM CLR 01/00 A3030 RMK AO2
KOVL 220815Z AUTO 00000KT 10SM CLR 02/01 A3030 RMK AO2
KOVL 220755Z AUTO 00000KT 10SM CLR 02/01 A3031 RMK AO2
KOVL 220735Z AUTO 00000KT 10SM CLR 02/01 A3031 RMK AO2